sensor_id;sensor_type;location;lat;lon;timestamp;pressure;altitude;pressure_sealevel;temperature;humidity
48774;BME280;34576;0.000;0.000;2023-05-19T00:03:16;96981.16;;;16.70;68.02
48774;BME280;34576;0.000;0.000;2023-05-19T00:10:20;96981.41;;;16.69;68.17
48774;BME280;34576;0.000;0.000;2023-05-19T00:17:21;96974.22;;;16.69;68.22
48774;BME280;34576;0.000;0.000;2023-05-19T00:24:21;96979.53;;;16.69;68.22
48774;BME280;34576;0.000;0.000;2023-05-19T00:31:21;96974.22;;;16.69;68.25
48774;BME280;34576;0.000;0.000;2023-05-19T00:38:22;96969.19;;;16.73;68.08
48774;BME280;34576;0.000;0.000;2023-05-19T00:45:23;96963.59;;;16.69;68.23
48774;BME280;34576;0.000;0.000;2023-05-19T00:52:23;96956.44;;;16.70;68.58
48774;BME280;34576;0.000;0.000;2023-05-19T00:59:25;96968.13;;;16.69;68.49
48774;BME280;34576;0.000;0.000;2023-05-19T01:06:25;96959.59;;;16.67;68.55
48774;BME280;34576;0.000;0.000;2023-05-19T01:13:27;96953.25;;;16.68;68.70
48774;BME280;34576;0.000;0.000;2023-05-19T01:20:33;96947.94;;;16.68;68.58
48774;BME280;34576;0.000;0.000;2023-05-19T01:34:41;96927.72;;;16.67;68.70
48774;BME280;34576;0.000;0.000;2023-05-19T01:41:42;96925.88;;;16.67;68.60
48774;BME280;34576;0.000;0.000;2023-05-19T01:48:45;96927.72;;;16.67;68.76
48774;BME280;34576;0.000;0.000;2023-05-19T01:55:48;96926.13;;;16.66;68.72
48774;BME280;34576;0.000;0.000;2023-05-19T02:10:05;96929.88;;;16.65;68.79
48774;BME280;34576;0.000;0.000;2023-05-19T02:17:10;96937.31;;;16.68;68.66
48774;BME280;34576;0.000;0.000;2023-05-19T02:24:11;96941.00;;;16.67;69.09
48774;BME280;34576;0.000;0.000;2023-05-19T02:31:12;96947.38;;;16.66;68.56
48774;BME280;34576;0.000;0.000;2023-05-19T02:38:13;96943.94;;;16.65;68.66
48774;BME280;34576;0.000;0.000;2023-05-19T02:45:13;96935.97;;;16.65;68.63
48774;BME280;34576;0.000;0.000;2023-05-19T02:52:14;96931.97;;;16.63;68.92
48774;BME280;34576;0.000;0.000;2023-05-19T02:59:16;96930.91;;;16.64;69.06
48774;BME280;34576;0.000;0.000;2023-05-19T03:06:16;96924.81;;;16.63;68.96
48774;BME280;34576;0.000;0.000;2023-05-19T03:13:17;96920.09;;;16.81;69.71
48774;BME280;34576;0.000;0.000;2023-05-19T03:20:17;96914.03;;;16.96;70.25
48774;BME280;34576;0.000;0.000;2023-05-19T03:27:18;96920.41;;;17.00;70.47
48774;BME280;34576;0.000;0.000;2023-05-19T03:34:18;96915.09;;;17.00;70.76
48774;BME280;34576;0.000;0.000;2023-05-19T03:41:19;96919.63;;;16.99;72.07
48774;BME280;34576;0.000;0.000;2023-05-19T03:48:20;96923.34;;;16.98;71.96
48774;BME280;34576;0.000;0.000;2023-05-19T03:55:43;96920.94;;;16.97;72.06
48774;BME280;34576;0.000;0.000;2023-05-19T04:02:43;96929.69;;;16.97;72.28
48774;BME280;34576;0.000;0.000;2023-05-19T04:09:44;96923.06;;;16.95;72.27
48774;BME280;34576;0.000;0.000;2023-05-19T04:16:44;96929.97;;;16.96;72.47
48774;BME280;34576;0.000;0.000;2023-05-19T04:23:45;96930.78;;;16.96;71.95
48774;BME280;34576;0.000;0.000;2023-05-19T04:30:45;96931.03;;;16.89;69.83
48774;BME280;34576;0.000;0.000;2023-05-19T04:37:46;96933.03;;;16.67;68.08
48774;BME280;34576;0.000;0.000;2023-05-19T04:44:49;96937.00;;;14.03;61.78
48774;BME280;34576;0.000;0.000;2023-05-19T04:51:52;96940.22;;;14.05;61.34
48774;BME280;34576;0.000;0.000;2023-05-19T04:58:56;96924.75;;;16.00;61.63
48774;BME280;34576;0.000;0.000;2023-05-19T05:05:59;96928.38;;;16.26;64.75
48774;BME280;34576;0.000;0.000;2023-05-19T05:13:00;96929.97;;;16.32;65.43
48774;BME280;34576;0.000;0.000;2023-05-19T05:20:01;96922.81;;;16.33;66.11
48774;BME280;34576;0.000;0.000;2023-05-19T05:27:03;96928.94;;;16.38;66.15
48774;BME280;34576;0.000;0.000;2023-05-19T05:34:04;96922.34;;;16.46;66.10
48774;BME280;34576;0.000;0.000;2023-05-19T05:41:06;96928.97;;;16.44;65.53
48774;BME280;34576;0.000;0.000;2023-05-19T05:48:07;96932.41;;;16.44;65.35
48774;BME280;34576;0.000;0.000;2023-05-19T05:55:08;96934.28;;;16.49;65.38
48774;BME280;34576;0.000;0.000;2023-05-19T06:02:09;96922.63;;;16.50;65.46
48774;BME280;34576;0.000;0.000;2023-05-19T06:09:10;96921.81;;;16.49;65.32
48774;BME280;34576;0.000;0.000;2023-05-19T06:16:11;96917.03;;;16.46;65.57
48774;BME280;34576;0.000;0.000;2023-05-19T06:23:15;96916.50;;;16.49;65.17
48774;BME280;34576;0.000;0.000;2023-05-19T06:30:16;96918.13;;;16.50;65.38
48774;BME280;34576;0.000;0.000;2023-05-19T06:37:42;96916.25;;;16.51;65.51
48774;BME280;34576;0.000;0.000;2023-05-19T06:44:43;96916.50;;;16.49;65.31
48774;BME280;34576;0.000;0.000;2023-05-19T06:51:45;96916.78;;;16.53;65.25
48774;BME280;34576;0.000;0.000;2023-05-19T06:58:47;96906.44;;;16.56;65.31
48774;BME280;34576;0.000;0.000;2023-05-19T07:05:47;96901.13;;;16.56;65.45
48774;BME280;34576;0.000;0.000;2023-05-19T07:12:48;96911.50;;;16.58;65.41
48774;BME280;34576;0.000;0.000;2023-05-19T07:19:51;96899.00;;;16.59;65.54
48774;BME280;34576;0.000;0.000;2023-05-19T07:26:51;96898.50;;;16.62;65.52
48774;BME280;34576;0.000;0.000;2023-05-19T07:33:51;96879.41;;;16.65;65.69
48774;BME280;34576;0.000;0.000;2023-05-19T07:40:51;96881.22;;;16.64;65.38
48774;BME280;34576;0.000;0.000;2023-05-19T07:47:52;96869.28;;;16.67;65.36
48774;BME280;34576;0.000;0.000;2023-05-19T07:54:54;96863.47;;;16.70;64.65
48774;BME280;34576;0.000;0.000;2023-05-19T08:01:55;96862.13;;;16.67;62.87
48774;BME280;34576;0.000;0.000;2023-05-19T08:08:55;96859.75;;;16.71;63.92
48774;BME280;34576;0.000;0.000;2023-05-19T08:15:56;96851.81;;;16.76;63.81
48774;BME280;34576;0.000;0.000;2023-05-19T08:22:58;96844.09;;;16.74;64.52
48774;BME280;34576;0.000;0.000;2023-05-19T08:29:59;96846.75;;;16.80;64.79
48774;BME280;34576;0.000;0.000;2023-05-19T08:36:59;96844.44;;;16.99;64.97
48774;BME280;34576;0.000;0.000;2023-05-19T08:44:00;96848.88;;;16.83;65.52
48774;BME280;34576;0.000;0.000;2023-05-19T08:58:06;96845.44;;;16.87;65.21
48774;BME280;34576;0.000;0.000;2023-05-19T09:05:07;96841.75;;;16.94;65.21
48774;BME280;34576;0.000;0.000;2023-05-19T09:12:09;96850.47;;;16.84;65.50
48774;BME280;34576;0.000;0.000;2023-05-19T09:19:12;96843.84;;;16.86;65.43
48774;BME280;34576;0.000;0.000;2023-05-19T09:26:14;96829.00;;;16.90;65.18
48774;BME280;34576;0.000;0.000;2023-05-19T09:33:20;96840.13;;;16.87;65.27
48774;BME280;34576;0.000;0.000;2023-05-19T09:40:20;96839.63;;;16.90;65.36
48774;BME280;34576;0.000;0.000;2023-05-19T09:47:21;96822.59;;;16.91;65.39
48774;BME280;34576;0.000;0.000;2023-05-19T09:54:23;96826.06;;;16.92;65.24
48774;BME280;34576;0.000;0.000;2023-05-19T10:01:24;96833.22;;;16.91;65.15
48774;BME280;34576;0.000;0.000;2023-05-19T10:08:24;96825.25;;;16.91;65.25
48774;BME280;34576;0.000;0.000;2023-05-19T10:15:26;96822.88;;;16.90;65.17
48774;BME280;34576;0.000;0.000;2023-05-19T10:22:26;96830.56;;;16.86;65.42
48774;BME280;34576;0.000;0.000;2023-05-19T10:29:29;96825.78;;;16.88;65.26
48774;BME280;34576;0.000;0.000;2023-05-19T10:36:38;96823.13;;;16.88;65.22
48774;BME280;34576;0.000;0.000;2023-05-19T10:50:42;96819.72;;;16.93;65.10
48774;BME280;34576;0.000;0.000;2023-05-19T10:57:52;96820.50;;;16.94;65.38
48774;BME280;34576;0.000;0.000;2023-05-19T11:04:53;96815.72;;;16.96;65.15
48774;BME280;34576;0.000;0.000;2023-05-19T11:12:00;96814.13;;;16.95;65.20
48774;BME280;34576;0.000;0.000;2023-05-19T11:19:05;96819.44;;;16.95;65.11
48774;BME280;34576;0.000;0.000;2023-05-19T11:26:05;96823.69;;;16.96;65.16
48774;BME280;34576;0.000;0.000;2023-05-19T11:33:06;96819.44;;;16.95;65.21
48774;BME280;34576;0.000;0.000;2023-05-19T11:40:07;96821.03;;;16.96;65.18
48774;BME280;34576;0.000;0.000;2023-05-19T11:47:08;96822.34;;;16.98;64.82
48774;BME280;34576;0.000;0.000;2023-05-19T11:54:11;96815.19;;;16.94;64.54
48774;BME280;34576;0.000;0.000;2023-05-19T12:01:12;96816.53;;;16.96;63.67
48774;BME280;34576;0.000;0.000;2023-05-19T12:08:13;96811.47;;;16.95;61.84
48774;BME280;34576;0.000;0.000;2023-05-19T12:15:13;96811.97;;;16.91;63.28
48774;BME280;34576;0.000;0.000;2023-05-19T12:22:15;96808.53;;;16.91;63.80
48774;BME280;34576;0.000;0.000;2023-05-19T12:29:16;96813.06;;;16.90;63.94
48774;BME280;34576;0.000;0.000;2023-05-19T12:36:17;96808.25;;;16.93;63.97
48774;BME280;34576;0.000;0.000;2023-05-19T12:43:18;96807.19;;;16.88;64.11
48774;BME280;34576;0.000;0.000;2023-05-19T12:50:18;96805.34;;;16.89;64.13
48774;BME280;34576;0.000;0.000;2023-05-19T12:57:19;96804.00;;;16.86;64.44
48774;BME280;34576;0.000;0.000;2023-05-19T13:04:19;96798.69;;;16.86;64.44
48774;BME280;34576;0.000;0.000;2023-05-19T13:11:20;96801.34;;;16.86;64.30
48774;BME280;34576;0.000;0.000;2023-05-19T13:18:20;96800.78;;;16.84;64.50
48774;BME280;34576;0.000;0.000;2023-05-19T13:25:20;96793.38;;;16.86;64.30
48774;BME280;34576;0.000;0.000;2023-05-19T13:32:22;96794.97;;;16.87;64.44
48774;BME280;34576;0.000;0.000;2023-05-19T13:39:22;96787.00;;;16.87;64.38
48774;BME280;34576;0.000;0.000;2023-05-19T13:46:23;96793.91;;;16.83;64.54
48774;BME280;34576;0.000;0.000;2023-05-19T13:53:23;96785.66;;;16.85;64.55
48774;BME280;34576;0.000;0.000;2023-05-19T14:00:23;96797.06;;;16.85;64.49
48774;BME280;34576;0.000;0.000;2023-05-19T14:07:23;96801.59;;;16.85;64.28
48774;BME280;34576;0.000;0.000;2023-05-19T14:14:24;96800.28;;;16.87;61.60
48774;BME280;34576;0.000;0.000;2023-05-19T14:21:24;96798.13;;;16.84;63.11
48774;BME280;34576;0.000;0.000;2023-05-19T14:28:25;96796.00;;;16.81;59.97
48774;BME280;34576;0.000;0.000;2023-05-19T14:35:25;96796.53;;;16.78;58.82
48774;BME280;34576;0.000;0.000;2023-05-19T14:42:26;96795.47;;;16.74;58.21
48774;BME280;34576;0.000;0.000;2023-05-19T14:49:26;96803.44;;;16.69;57.95
48774;BME280;34576;0.000;0.000;2023-05-19T14:56:26;96807.69;;;16.65;57.76
48774;BME280;34576;0.000;0.000;2023-05-19T15:03:27;96814.59;;;16.61;57.64
48774;BME280;34576;0.000;0.000;2023-05-19T15:10:27;96819.06;;;16.60;57.71
48774;BME280;34576;0.000;0.000;2023-05-19T15:17:28;96814.56;;;16.55;57.08
48774;BME280;34576;0.000;0.000;2023-05-19T15:24:28;96807.13;;;16.58;58.19
48774;BME280;34576;0.000;0.000;2023-05-19T15:31:28;96815.09;;;16.52;57.14
48774;BME280;34576;0.000;0.000;2023-05-19T15:38:29;96816.16;;;16.46;56.80
48774;BME280;34576;0.000;0.000;2023-05-19T15:45:29;96823.03;;;16.47;57.05
48774;BME280;34576;0.000;0.000;2023-05-19T15:52:29;96829.41;;;16.41;57.02
48774;BME280;34576;0.000;0.000;2023-05-19T15:59:29;96826.47;;;16.37;56.81
48774;BME280;34576;0.000;0.000;2023-05-19T16:06:30;96826.72;;;16.36;56.01
48774;BME280;34576;0.000;0.000;2023-05-19T16:13:30;96822.78;;;16.54;57.98
48774;BME280;34576;0.000;0.000;2023-05-19T16:20:32;96828.66;;;16.66;59.14
48774;BME280;34576;0.000;0.000;2023-05-19T16:27:33;96820.41;;;16.63;59.52
48774;BME280;34576;0.000;0.000;2023-05-19T16:34:33;96816.72;;;16.64;60.18
48774;BME280;34576;0.000;0.000;2023-05-19T16:41:33;96825.47;;;16.59;60.86
48774;BME280;34576;0.000;0.000;2023-05-19T16:48:34;96819.88;;;16.66;60.91
48774;BME280;34576;0.000;0.000;2023-05-19T16:55:34;96819.88;;;16.66;61.17
48774;BME280;34576;0.000;0.000;2023-05-19T17:02:34;96817.50;;;16.64;61.56
48774;BME280;34576;0.000;0.000;2023-05-19T17:09:35;96819.09;;;16.65;61.59
48774;BME280;34576;0.000;0.000;2023-05-19T17:16:35;96815.66;;;16.65;61.87
48774;BME280;34576;0.000;0.000;2023-05-19T17:23:36;96809.53;;;16.64;61.97
48774;BME280;34576;0.000;0.000;2023-05-19T17:30:38;96813.00;;;16.65;62.16
48774;BME280;34576;0.000;0.000;2023-05-19T17:37:38;96811.41;;;16.64;62.02
48774;BME280;34576;0.000;0.000;2023-05-19T17:44:41;96811.13;;;16.65;62.12
48774;BME280;34576;0.000;0.000;2023-05-19T17:51:42;96818.84;;;16.62;62.27
48774;BME280;34576;0.000;0.000;2023-05-19T17:58:42;96807.13;;;16.63;62.14
48774;BME280;34576;0.000;0.000;2023-05-19T18:05:45;96805.56;;;16.62;62.27
48774;BME280;34576;0.000;0.000;2023-05-19T18:12:46;96805.56;;;16.62;62.52
48774;BME280;34576;0.000;0.000;2023-05-19T18:19:46;96810.88;;;16.62;62.33
48774;BME280;34576;0.000;0.000;2023-05-19T18:26:46;96810.31;;;16.60;62.58
48774;BME280;34576;0.000;0.000;2023-05-19T18:33:47;96812.97;;;16.60;62.41
48774;BME280;34576;0.000;0.000;2023-05-19T18:40:48;96822.00;;;16.59;62.68
48774;BME280;34576;0.000;0.000;2023-05-19T18:47:48;96811.63;;;16.57;62.54
48774;BME280;34576;0.000;0.000;2023-05-19T18:54:49;96821.47;;;16.56;62.67
48774;BME280;34576;0.000;0.000;2023-05-19T19:01:53;96810.84;;;16.56;62.68
48774;BME280;34576;0.000;0.000;2023-05-19T19:08:54;96809.25;;;16.55;62.74
48774;BME280;34576;0.000;0.000;2023-05-19T19:15:54;96816.44;;;16.55;62.83
48774;BME280;34576;0.000;0.000;2023-05-19T19:22:54;96818.25;;;16.54;62.81
48774;BME280;34576;0.000;0.000;2023-05-19T19:29:54;96819.59;;;16.52;62.99
48774;BME280;34576;0.000;0.000;2023-05-19T19:36:55;96822.25;;;16.52;62.64
48774;BME280;34576;0.000;0.000;2023-05-19T19:43:55;96813.47;;;16.51;62.78
48774;BME280;34576;0.000;0.000;2023-05-19T19:50:55;96814.00;;;16.48;62.88
48774;BME280;34576;0.000;0.000;2023-05-19T19:57:56;96806.34;;;16.52;62.73
48774;BME280;34576;0.000;0.000;2023-05-19T20:04:56;96808.16;;;16.51;62.81
48774;BME280;34576;0.000;0.000;2023-05-19T20:11:57;96814.56;;;16.50;62.90
48774;BME280;34576;0.000;0.000;2023-05-19T20:18:57;96815.34;;;16.51;62.68
48774;BME280;34576;0.000;0.000;2023-05-19T20:25:57;96820.41;;;16.52;62.90
48774;BME280;34576;0.000;0.000;2023-05-19T20:33:08;96826.00;;;16.56;62.74
48774;BME280;34576;0.000;0.000;2023-05-19T20:40:10;96814.56;;;16.66;63.53
48774;BME280;34576;0.000;0.000;2023-05-19T20:47:11;96810.06;;;16.61;63.98
48774;BME280;34576;0.000;0.000;2023-05-19T20:54:11;96811.94;;;16.61;64.80
48774;BME280;34576;0.000;0.000;2023-05-19T21:01:12;96801.56;;;16.59;65.00
48774;BME280;34576;0.000;0.000;2023-05-19T21:08:12;96804.97;;;16.54;63.77
48774;BME280;34576;0.000;0.000;2023-05-19T21:15:12;96806.06;;;16.53;63.82
48774;BME280;34576;0.000;0.000;2023-05-19T21:22:13;96791.75;;;16.65;64.97
48774;BME280;34576;0.000;0.000;2023-05-19T21:29:13;96789.09;;;16.65;65.51
48774;BME280;34576;0.000;0.000;2023-05-19T21:36:13;96779.00;;;16.67;65.99
48774;BME280;34576;0.000;0.000;2023-05-19T21:43:13;96779.78;;;16.67;66.57
48774;BME280;34576;0.000;0.000;2023-05-19T21:50:14;96772.38;;;16.69;66.87
48774;BME280;34576;0.000;0.000;2023-05-19T21:57:16;96762.00;;;16.73;67.25
48774;BME280;34576;0.000;0.000;2023-05-19T22:04:16;96756.97;;;16.77;67.82
48774;BME280;34576;0.000;0.000;2023-05-19T22:11:17;96755.91;;;16.78;67.92
48774;BME280;34576;0.000;0.000;2023-05-19T22:18:17;96752.44;;;16.77;68.63
48774;BME280;34576;0.000;0.000;2023-05-19T22:25:17;96751.09;;;16.80;68.88
48774;BME280;34576;0.000;0.000;2023-05-19T22:32:18;96737.56;;;16.81;69.66
48774;BME280;34576;0.000;0.000;2023-05-19T22:39:18;96731.19;;;16.82;69.70
48774;BME280;34576;0.000;0.000;2023-05-19T22:46:18;96732.53;;;16.85;70.07
48774;BME280;34576;0.000;0.000;2023-05-19T22:53:18;96731.19;;;16.87;70.28
48774;BME280;34576;0.000;0.000;2023-05-19T23:00:19;96728.03;;;16.90;70.10
48774;BME280;34576;0.000;0.000;2023-05-19T23:07:19;96732.81;;;16.94;70.83
48774;BME280;34576;0.000;0.000;2023-05-19T23:14:20;96729.38;;;16.93;71.32
48774;BME280;34576;0.000;0.000;2023-05-19T23:21:20;96722.69;;;16.96;71.34
48774;BME280;34576;0.000;0.000;2023-05-19T23:28:21;96709.97;;;16.98;71.42
48774;BME280;34576;0.000;0.000;2023-05-19T23:35:21;96704.09;;;17.01;71.85
48774;BME280;34576;0.000;0.000;2023-05-19T23:42:21;96692.16;;;17.03;72.09
48774;BME280;34576;0.000;0.000;2023-05-19T23:49:22;96682.03;;;17.11;69.80
48774;BME280;34576;0.000;0.000;2023-05-19T23:56:22;96685.78;;;16.99;68.82
